createdAt,value
2023-01-13T00:04:37.564Z,20.70
2023-01-13T00:09:37.590Z,18.00
2023-01-13T00:14:37.646Z,19.80
2023-01-13T00:19:37.779Z,17.70
2023-01-13T00:24:37.469Z,20.80
2023-01-13T00:29:37.663Z,20.80
2023-01-13T00:34:37.704Z,18.30
2023-01-13T00:39:37.817Z,21.10
2023-01-13T00:44:37.484Z,22.80
2023-01-13T00:49:37.642Z,22.50
2023-01-13T00:54:37.441Z,18.80
2023-01-13T00:59:37.534Z,20.20
2023-01-13T01:04:37.887Z,17.40
2023-01-13T01:09:38.471Z,16.10
2023-01-13T01:14:37.458Z,18.80
2023-01-13T01:19:37.857Z,17.10
2023-01-13T01:24:37.701Z,19.30
2023-01-13T01:29:37.616Z,23.00
2023-01-13T01:34:38.243Z,20.00
2023-01-13T01:39:37.737Z,16.40
2023-01-13T01:44:52.538Z,20.20
2023-01-13T01:49:38.956Z,18.40
2023-01-13T01:54:42.643Z,18.00
2023-01-13T01:59:38.499Z,18.60
2023-01-13T02:04:40.072Z,16.60
2023-01-13T02:09:37.526Z,17.00
2023-01-13T02:14:38.721Z,15.40
2023-01-13T02:19:57.266Z,17.30
2023-01-13T02:24:57.199Z,18.10
2023-01-13T02:30:05.805Z,17.10
2023-01-13T02:34:41.986Z,20.30
2023-01-13T02:39:44.155Z,17.50
2023-01-13T02:44:43.177Z,17.70
2023-01-13T02:49:43.434Z,17.50
2023-01-13T02:54:42.612Z,15.80
2023-01-13T02:59:39.939Z,15.50
2023-01-13T03:04:48.525Z,18.80
2023-01-13T03:09:43.345Z,16.30
2023-01-13T03:14:45.138Z,16.60
2023-01-13T03:19:43.142Z,15.50
2023-01-13T03:24:41.837Z,16.50
2023-01-13T03:29:41.276Z,16.50
2023-01-13T03:34:45.087Z,14.50
2023-01-13T03:39:42.653Z,16.10
2023-01-13T03:44:43.451Z,15.90
2023-01-13T03:49:43.924Z,17.60
2023-01-13T03:54:44.250Z,14.90
2023-01-13T03:59:42.123Z,14.70
2023-01-13T04:04:42.931Z,14.80
2023-01-13T04:09:48.787Z,13.40
2023-01-13T04:14:38.382Z,15.90
2023-01-13T04:19:37.673Z,13.60
2023-01-13T04:24:37.294Z,14.00
2023-01-13T04:29:37.427Z,15.10
2023-01-13T04:34:38.330Z,13.90
2023-01-13T04:39:37.383Z,15.70
2023-01-13T04:44:37.542Z,13.70
2023-01-13T04:49:38.516Z,17.80
2023-01-13T04:54:37.500Z,18.10
2023-01-13T04:59:37.458Z,17.10
2023-01-13T05:04:37.594Z,13.00
2023-01-13T05:09:37.253Z,14.50
2023-01-13T05:14:47.269Z,14.40
2023-01-13T05:19:38.199Z,14.80
2023-01-13T05:24:47.512Z,13.30
2023-01-13T05:29:37.274Z,15.20
2023-01-13T05:34:37.676Z,14.70
2023-01-13T05:39:47.199Z,16.10
2023-01-13T05:44:37.254Z,14.30
2023-01-13T05:49:37.457Z,14.10
2023-01-13T05:54:37.235Z,13.10
2023-01-13T05:59:37.381Z,15.50
2023-01-13T06:04:37.951Z,15.30
2023-01-13T06:09:37.343Z,17.70
2023-01-13T06:14:39.089Z,12.90
2023-01-13T06:19:37.989Z,13.70
2023-01-13T06:24:37.311Z,16.50
2023-01-13T06:29:37.447Z,15.20
2023-01-13T06:34:39.181Z,16.70
2023-01-13T06:39:37.281Z,14.70
2023-01-13T06:44:38.704Z,15.50
2023-01-13T06:49:37.491Z,13.50
2023-01-13T06:54:37.292Z,13.20
2023-01-13T06:59:37.436Z,13.30
2023-01-13T07:04:37.547Z,13.50
2023-01-13T07:09:37.180Z,12.90
2023-01-13T07:14:47.126Z,13.00
2023-01-13T07:19:37.371Z,17.60
2023-01-13T07:24:37.722Z,14.40
2023-01-13T07:29:37.148Z,15.00
2023-01-13T07:34:37.577Z,13.10
2023-01-13T07:39:37.214Z,14.40
2023-01-13T07:44:37.399Z,14.40
2023-01-13T07:49:37.481Z,13.60
2023-01-13T07:54:41.073Z,14.50
2023-01-13T07:59:37.228Z,11.60
2023-01-13T08:04:37.791Z,13.00
2023-01-13T08:09:37.115Z,12.40
2023-01-13T08:14:37.152Z,14.70
2023-01-13T08:19:37.594Z,14.80
2023-01-13T08:24:37.175Z,13.30
2023-01-13T08:29:37.179Z,13.40
2023-01-13T08:34:37.447Z,12.90
2023-01-13T08:39:37.102Z,10.80
2023-01-13T08:44:37.165Z,12.70
2023-01-13T08:49:37.730Z,12.90
2023-01-13T08:54:38.019Z,10.50
2023-01-13T08:59:37.194Z,10.20
2023-01-13T09:04:38.277Z,11.10
2023-01-13T09:09:37.638Z,16.70
2023-01-13T09:14:38.089Z,20.50
2023-01-13T09:19:37.500Z,15.10
2023-01-13T09:24:34.346Z,14.40
2023-01-13T09:24:36.813Z,14.40
2023-01-13T09:29:37.406Z,12.80
2023-01-13T09:34:49.335Z,10.40
2023-01-13T09:39:37.127Z,9.70
2023-01-13T09:44:45.312Z,13.50
2023-01-13T09:49:40.340Z,11.80
2023-01-13T09:54:41.974Z,11.40
2023-01-13T09:56:58.355Z,11.50
2023-01-13T09:59:38.268Z,11.50
2023-01-13T10:04:37.476Z,9.90
2023-01-13T10:09:47.422Z,14.00
2023-01-13T10:14:41.298Z,9.70
2023-01-13T10:19:43.302Z,12.20
2023-01-13T10:24:56.951Z,13.60
2023-01-13T10:29:37.209Z,17.30
2023-01-13T10:34:46.260Z,10.20
2023-01-13T10:39:40.043Z,11.20
2023-01-13T10:44:46.285Z,11.40
2023-01-13T10:49:37.698Z,10.40
2023-01-13T10:54:50.356Z,12.90
2023-01-13T10:59:36.991Z,11.30
2023-01-13T11:04:39.815Z,13.60
2023-01-13T11:09:37.025Z,9.80
2023-01-13T11:14:40.835Z,15.80
2023-01-13T11:19:41.210Z,14.50
2023-01-13T11:24:43.918Z,12.90
2023-01-13T11:29:42.026Z,20.20
2023-01-13T11:34:40.635Z,13.90
2023-01-13T11:39:46.798Z,8.90
2023-01-13T11:44:44.105Z,11.10
2023-01-13T11:49:37.672Z,9.70
2023-01-13T11:54:48.845Z,11.20
2023-01-13T11:59:49.932Z,12.10
2023-01-13T12:04:42.925Z,9.40
2023-01-13T12:09:47.073Z,12.80
2023-01-13T12:14:49.817Z,13.70
2023-01-13T12:19:37.964Z,13.30
2023-01-13T12:24:43.382Z,11.70
2023-01-13T12:29:38.169Z,12.70
2023-01-13T12:34:49.231Z,12.00
2023-01-13T12:39:43.528Z,13.20
2023-01-13T12:44:37.263Z,8.80
2023-01-13T12:49:37.231Z,10.90
2023-01-13T12:54:56.870Z,12.20
2023-01-13T12:59:36.938Z,10.60
2023-01-13T13:04:43.371Z,13.90
2023-01-13T13:09:42.772Z,16.20
2023-01-13T13:14:56.922Z,13.50
2023-01-13T13:19:41.681Z,13.00
2023-01-13T13:24:38.933Z,11.80
2023-01-13T13:29:45.691Z,10.10
2023-01-13T13:34:44.497Z,11.90
2023-01-13T13:39:51.182Z,14.00
2023-01-13T13:44:49.633Z,11.80
2023-01-13T13:49:40.614Z,11.30
2023-01-13T13:54:40.560Z,11.90
2023-01-13T13:56:16.070Z,11.90
2023-01-13T13:59:38.727Z,11.10
2023-01-13T14:04:38.123Z,9.30
2023-01-13T14:09:43.217Z,11.00
2023-01-13T14:14:41.782Z,12.80
2023-01-13T14:19:41.496Z,10.90
2023-01-13T14:24:45.627Z,14.10
2023-01-13T14:29:37.061Z,9.50
2023-01-13T14:34:37.945Z,10.00
2023-01-13T14:39:39.747Z,11.70
2023-01-13T14:44:41.976Z,11.70
2023-01-13T14:49:39.389Z,10.80
2023-01-13T14:54:42.234Z,13.50
2023-01-13T14:59:50.590Z,12.20
2023-01-13T15:04:37.250Z,14.40
2023-01-13T15:09:40.626Z,11.00
2023-01-13T15:14:36.762Z,12.00
2023-01-13T15:19:36.843Z,12.30
2023-01-13T15:24:36.995Z,14.50
2023-01-13T15:29:36.771Z,11.90
2023-01-13T15:34:37.045Z,11.50
2023-01-13T15:39:37.254Z,11.80
2023-01-13T15:44:46.837Z,15.80
2023-01-13T15:49:41.284Z,12.10
2023-01-13T15:54:36.976Z,16.90
2023-01-13T15:59:36.717Z,19.50
2023-01-13T16:04:36.922Z,15.20
2023-01-13T16:09:37.095Z,12.90
2023-01-13T16:14:37.263Z,15.30
2023-01-13T16:19:36.686Z,15.50
2023-01-13T16:24:36.938Z,15.10
2023-01-13T16:29:36.760Z,14.40
2023-01-13T16:34:36.882Z,15.10
2023-01-13T16:39:36.986Z,17.00
2023-01-13T16:44:36.816Z,17.20
2023-01-13T16:49:36.828Z,15.70
2023-01-13T16:54:36.988Z,15.50
2023-01-13T16:59:36.725Z,13.50
2023-01-13T17:04:36.877Z,12.90
2023-01-13T17:09:36.904Z,14.90
2023-01-13T17:14:36.734Z,15.30
2023-01-13T17:19:36.808Z,16.20
2023-01-13T17:24:37.133Z,15.90
2023-01-13T17:29:37.730Z,16.20
2023-01-13T17:34:39.308Z,16.90
2023-01-13T17:39:36.976Z,15.50
2023-01-13T17:44:37.516Z,17.90
2023-01-13T17:49:36.683Z,16.70
2023-01-13T17:54:38.925Z,14.30
2023-01-13T17:59:36.842Z,15.50
2023-01-13T18:04:36.756Z,17.10
2023-01-13T18:09:37.247Z,15.50
2023-01-13T18:14:36.727Z,15.60
2023-01-13T18:19:46.719Z,22.80
2023-01-13T18:24:46.892Z,15.80
2023-01-13T18:29:36.682Z,19.60
2023-01-13T18:34:37.635Z,18.00
2023-01-13T18:39:37.169Z,18.10
2023-01-13T18:44:36.720Z,18.90
2023-01-13T18:49:36.746Z,20.00
2023-01-13T18:54:36.867Z,49.20
2023-01-13T18:59:36.756Z,27.50
2023-01-13T19:04:36.800Z,20.60
2023-01-13T19:09:37.647Z,21.60
2023-01-13T19:14:36.717Z,23.50
2023-01-13T19:19:37.618Z,20.50
2023-01-13T19:24:36.829Z,21.70
2023-01-13T19:29:36.979Z,24.20
2023-01-13T19:34:36.950Z,23.00
2023-01-13T19:39:37.191Z,21.70
2023-01-13T19:44:46.559Z,22.70
2023-01-13T19:49:37.976Z,23.80
2023-01-13T19:54:37.064Z,24.00
2023-01-13T19:59:39.896Z,23.20
2023-01-13T20:04:37.534Z,21.30
2023-01-13T20:09:40.007Z,19.30
2023-01-13T20:19:36.751Z,15.40
2023-01-13T20:24:36.793Z,14.20
2023-01-13T20:29:37.040Z,16.20
2023-01-13T20:34:36.577Z,12.60
2023-01-13T20:39:36.989Z,11.70
2023-01-13T20:44:36.831Z,12.30
2023-01-13T20:49:36.714Z,12.50
2023-01-13T20:54:37.956Z,11.70
2023-01-13T20:59:37.647Z,11.00
2023-01-13T21:04:36.618Z,11.00
2023-01-13T21:09:37.157Z,11.70
2023-01-13T21:14:47.080Z,11.00
2023-01-13T21:19:36.555Z,10.60
2023-01-13T21:24:37.148Z,10.90
2023-01-13T21:29:36.689Z,11.50
2023-01-13T21:34:36.652Z,10.20
2023-01-13T21:39:37.089Z,9.00
2023-01-13T21:44:48.481Z,11.50
2023-01-13T21:49:42.971Z,10.80
2023-01-13T21:54:46.920Z,10.00
2023-01-13T21:59:36.538Z,10.40
2023-01-13T22:04:36.563Z,10.70
2023-01-13T22:09:36.908Z,13.10
2023-01-13T22:14:37.187Z,11.20
2023-01-13T22:19:41.195Z,13.10
2023-01-13T22:24:42.086Z,10.70
2023-01-13T22:29:37.763Z,12.60
2023-01-13T22:34:36.631Z,10.70
2023-01-13T22:39:37.080Z,12.00
2023-01-13T22:44:36.585Z,11.10
2023-01-13T22:49:36.748Z,12.50
2023-01-13T22:54:36.877Z,11.80
2023-01-13T22:59:36.732Z,11.40
2023-01-13T23:04:36.781Z,11.80
2023-01-13T23:09:40.872Z,9.70
2023-01-13T23:14:36.453Z,11.70
2023-01-13T23:19:36.579Z,9.40
2023-01-13T23:24:37.156Z,9.90
2023-01-13T23:29:36.913Z,8.80
2023-01-13T23:34:36.657Z,11.70
2023-01-13T23:39:36.721Z,10.30
2023-01-13T23:44:36.521Z,11.00
2023-01-13T23:49:36.727Z,9.80
2023-01-13T23:54:37.003Z,8.80
2023-01-13T23:59:36.440Z,11.00
